createdAt,value
2022-08-28T11:31:36.376Z,100296.16
2022-08-28T11:34:05.551Z,100324.72
2022-08-28T11:37:00.350Z,100440.69
2022-08-28T11:39:28.339Z,65387.91
2022-08-28T11:42:32.190Z,65387.91
2022-08-28T11:44:59.816Z,65387.91
2022-08-28T11:47:52.085Z,65387.91
2022-08-28T11:50:27.035Z,65387.91
2022-08-28T11:53:19.875Z,65387.91
2022-08-28T11:56:09.659Z,65387.91
2022-08-28T11:58:45.440Z,65387.91
2022-08-28T12:01:15.048Z,65387.91
2022-08-28T12:03:55.684Z,65387.91
2022-08-28T12:06:55.111Z,100440.69
2022-08-28T12:09:43.957Z,100435.06
2022-08-28T12:12:34.281Z,100469.41
2022-08-28T12:15:10.004Z,100470.56
2022-08-28T12:17:52.583Z,100534.34
2022-08-28T12:20:34.724Z,100513.06
2022-08-28T12:23:23.522Z,100544.53
2022-08-28T12:25:58.652Z,100582.25
2022-08-28T12:28:29.695Z,100602.41
2022-08-28T12:31:47.791Z,100592.88
2022-08-28T12:34:24.048Z,100609.31
2022-08-28T12:36:58.061Z,100585.38
2022-08-28T12:39:25.703Z,100593.81
2022-08-28T12:41:53.243Z,100611.66
2022-08-28T12:44:25.279Z,100610.25
2022-08-28T12:46:55.090Z,100557.06
2022-08-28T12:49:32.971Z,100450.34
2022-08-28T12:52:16.850Z,100487.19
2022-08-28T12:54:45.577Z,100541.06
2022-08-28T12:58:13.324Z,65387.91
2022-08-28T13:01:42.466Z,65387.91
2022-08-28T13:05:29.892Z,65387.91
2022-08-28T13:09:00.045Z,65387.91
2022-08-28T13:12:55.155Z,65387.91
2022-08-28T13:16:38.833Z,65387.91
2022-08-28T13:19:24.936Z,100521.13
2022-08-28T13:21:58.492Z,100532.63
2022-08-28T13:24:38.454Z,100525.22
2022-08-28T13:27:16.643Z,100567.38
2022-08-28T13:29:55.675Z,100592.03
2022-08-28T13:33:26.301Z,65387.91
2022-08-28T13:36:55.716Z,65387.91
2022-08-28T13:40:56.901Z,65387.91
2022-08-28T13:44:07.304Z,65387.91
2022-08-28T13:47:33.260Z,65387.91
2022-08-28T13:51:04.388Z,65387.91
2022-08-28T13:54:31.227Z,65387.91
2022-08-28T13:57:58.303Z,65387.91
2022-08-28T14:01:45.033Z,65387.91
2022-08-28T14:04:13.024Z,100591.38
2022-08-28T14:06:44.205Z,100592.03
2022-08-28T14:09:47.544Z,100592.03
2022-08-28T14:13:13.575Z,65387.91
2022-08-28T14:16:40.399Z,65387.91
2022-08-28T14:20:07.030Z,65387.91
2022-08-28T14:23:35.094Z,65387.91
2022-08-28T14:27:03.623Z,65387.91
2022-08-28T14:30:29.663Z,65387.91
2022-08-28T14:33:55.584Z,65387.91
2022-08-28T14:37:22.792Z,65387.91
2022-08-28T14:40:50.222Z,65387.91
2022-08-28T14:44:19.181Z,65387.91
2022-08-28T14:47:46.022Z,65387.91
2022-08-28T14:50:49.059Z,100592.03
2022-08-28T14:53:16.928Z,100551.84
2022-08-28T14:56:28.744Z,65387.91
2022-08-28T14:59:00.597Z,100565.38
2022-08-28T15:01:39.599Z,100564.34
2022-08-28T15:04:10.866Z,100562.47
2022-08-28T15:06:38.807Z,100563.13
2022-08-28T15:09:06.388Z,100559.81
2022-08-28T15:11:35.803Z,100564.25
2022-08-28T15:14:03.306Z,100547.13
2022-08-28T15:16:33.630Z,100563.31
2022-08-28T15:19:02.043Z,100548.91
2022-08-28T15:21:32.271Z,100555.41
2022-08-28T15:24:01.627Z,100558.50
2022-08-28T15:26:30.691Z,100558.56
2022-08-28T15:29:02.275Z,100567.09
2022-08-28T15:31:30.456Z,100528.47
2022-08-28T15:33:58.901Z,100553.91
2022-08-28T15:36:26.290Z,100556.34
2022-08-28T15:39:11.003Z,100564.41
2022-08-28T15:41:38.484Z,100566.66
2022-08-28T15:44:07.199Z,100560.97
2022-08-28T15:46:35.954Z,100544.44
2022-08-28T15:49:04.746Z,100550.13
2022-08-28T15:51:35.904Z,100552.69
2022-08-28T15:54:03.515Z,100566.19
2022-08-28T15:56:30.992Z,100563.66
2022-08-28T15:58:58.363Z,100552.47
2022-08-28T16:01:27.165Z,100544.97
2022-08-28T16:03:54.596Z,100559.94
2022-08-28T16:06:22.908Z,100564.34
2022-08-28T16:08:51.032Z,100577.78
2022-08-28T16:11:19.660Z,100568.66
2022-08-28T16:13:47.663Z,100544.16
2022-08-28T16:16:15.103Z,100517.56
2022-08-28T16:18:44.260Z,100538.53
2022-08-28T16:21:12.839Z,100552.81
2022-08-28T16:23:41.181Z,100554.41
2022-08-28T16:26:10.217Z,100560.91
2022-08-28T16:28:39.021Z,100571.00
2022-08-28T16:31:08.180Z,100576.81
2022-08-28T16:33:48.122Z,100566.69
2022-08-28T16:37:13.451Z,65387.91
2022-08-28T16:40:42.205Z,65387.91
2022-08-28T16:43:09.652Z,100500.56
2022-08-28T16:45:37.314Z,100537.31
2022-08-28T16:48:05.447Z,100517.69
2022-08-28T16:51:32.722Z,65387.91
2022-08-28T16:55:00.000Z,65387.91
2022-08-28T16:58:26.024Z,65387.91
2022-08-28T17:01:53.802Z,65387.91
2022-08-28T17:05:21.571Z,65387.91
2022-08-28T17:08:50.569Z,65387.91
2022-08-28T17:12:14.331Z,65387.91
2022-08-28T17:15:13.807Z,65387.91
2022-08-28T17:18:40.435Z,65387.91
2022-08-28T17:22:18.357Z,65387.91
2022-08-28T17:25:45.531Z,65387.91
2022-08-28T17:28:13.034Z,100467.13
2022-08-28T17:31:33.432Z,65387.91
2022-08-28T17:34:43.358Z,65387.91
2022-08-28T17:38:08.936Z,65387.91
2022-08-28T17:41:37.859Z,65387.91
2022-08-28T17:45:04.544Z,65387.91
2022-08-28T17:48:19.544Z,65387.91
2022-08-28T17:51:42.499Z,65387.91
2022-08-28T17:54:52.195Z,65387.91
2022-08-28T17:58:19.032Z,65387.91
2022-08-28T18:01:46.345Z,65387.91
2022-08-28T18:05:15.325Z,65387.91
2022-08-28T18:08:41.260Z,65387.91
2022-08-28T18:12:12.451Z,65387.91
2022-08-28T18:15:40.254Z,65387.91
2022-08-28T18:18:10.967Z,99952.97
2022-08-28T18:20:38.404Z,100145.22
2022-08-28T18:24:04.015Z,65387.91
2022-08-28T18:27:31.433Z,65387.91
2022-08-28T18:30:59.295Z,65387.91
2022-08-28T18:34:25.379Z,65387.91
2022-08-28T18:37:51.375Z,65387.91
2022-08-28T18:41:19.368Z,65387.91
2022-08-28T18:44:45.458Z,65387.91
2022-08-28T18:48:12.809Z,65387.91
2022-08-28T18:51:40.332Z,65387.91
2022-08-28T18:55:07.036Z,65387.91
2022-08-28T18:57:52.775Z,100145.22
2022-08-28T19:01:20.374Z,65387.91
2022-08-28T19:04:11.852Z,100145.22
2022-08-28T19:07:35.179Z,65387.91
2022-08-28T19:10:32.141Z,65387.91
2022-08-28T19:13:36.568Z,65387.91
2022-08-28T19:17:03.215Z,65387.91
2022-08-28T19:19:33.916Z,65387.91
2022-08-28T19:22:33.393Z,65387.91
2022-08-28T19:26:02.253Z,65387.91
2022-08-28T19:29:28.652Z,65387.91
2022-08-28T19:32:54.784Z,65387.91
2022-08-28T19:36:22.293Z,65387.91
2022-08-28T19:39:48.361Z,65387.91
2022-08-28T19:43:22.723Z,65387.91
2022-08-28T19:46:48.644Z,65387.91
2022-08-28T19:50:15.810Z,65387.91
2022-08-28T19:53:43.247Z,65387.91
2022-08-28T19:57:09.819Z,65387.91
2022-08-28T20:00:36.756Z,65387.91
2022-08-28T20:04:02.958Z,65387.91
2022-08-28T20:07:30.520Z,65387.91
2022-08-28T20:10:57.662Z,65387.91
2022-08-28T20:13:25.191Z,101330.78
2022-08-28T20:16:23.892Z,65387.91
2022-08-28T20:19:11.199Z,65387.91
2022-08-28T20:22:38.364Z,65387.91
2022-08-28T20:25:18.077Z,65387.91
2022-08-28T20:28:44.208Z,65387.91
2022-08-28T20:32:11.276Z,65387.91
2022-08-28T20:35:27.575Z,65387.91
2022-08-28T20:38:32.440Z,65387.91
2022-08-28T20:42:06.068Z,65387.91
2022-08-28T20:45:09.086Z,65387.91
2022-08-28T20:48:16.596Z,65387.91
2022-08-28T20:51:56.473Z,65387.91
2022-08-28T20:54:59.734Z,65387.91
2022-08-28T20:58:17.733Z,65387.91
2022-08-28T21:01:37.057Z,65387.91
2022-08-28T21:04:56.195Z,65387.91
2022-08-28T21:07:46.407Z,65387.91
2022-08-28T21:10:13.973Z,65387.91
2022-08-28T21:13:39.222Z,65387.91
2022-08-28T21:16:41.548Z,65387.91
2022-08-28T21:19:16.258Z,65387.91
2022-08-28T21:21:44.610Z,65387.91
2022-08-28T21:24:14.541Z,65387.91
2022-08-28T21:26:43.243Z,65387.91
2022-08-28T21:29:13.845Z,65387.91
2022-08-28T21:31:42.256Z,65387.91
2022-08-28T21:34:10.605Z,65387.91
2022-08-28T21:36:38.951Z,65387.91
2022-08-28T21:39:06.469Z,65387.91
2022-08-28T21:42:32.605Z,65387.91
2022-08-28T21:46:00.520Z,65387.91
2022-08-28T21:48:47.827Z,65387.91
2022-08-28T21:52:14.147Z,65387.91
2022-08-28T21:54:41.527Z,65387.91
2022-08-28T21:57:08.997Z,65387.91
2022-08-28T21:59:37.984Z,65387.91
2022-08-28T22:02:07.230Z,65387.91
2022-08-28T22:04:35.010Z,65387.91
2022-08-28T22:07:02.665Z,65387.91
2022-08-28T22:09:30.144Z,65387.91
2022-08-28T22:11:57.523Z,65387.91
2022-08-28T22:14:28.464Z,65387.91
2022-08-28T22:17:14.971Z,65387.91
2022-08-28T22:19:46.576Z,65387.91
2022-08-28T22:23:10.901Z,65387.91
2022-08-28T22:25:41.098Z,65387.91
2022-08-28T22:28:13.649Z,65387.91
2022-08-28T22:30:41.118Z,65387.91
2022-08-28T22:33:17.971Z,65387.91
2022-08-28T22:36:41.646Z,65387.91
2022-08-28T22:39:26.992Z,65387.91
2022-08-28T22:42:08.449Z,65387.91
2022-08-28T22:45:35.957Z,65387.91
2022-08-28T22:48:03.856Z,65387.91
2022-08-28T22:50:43.622Z,101330.78
2022-08-28T22:54:09.630Z,65387.91
2022-08-28T22:56:37.688Z,101330.78
2022-08-28T23:00:01.335Z,65387.91
2022-08-28T23:03:27.319Z,65387.91
2022-08-28T23:06:54.692Z,65387.91
2022-08-28T23:10:36.756Z,65387.91
2022-08-28T23:14:08.107Z,65387.91
2022-08-28T23:17:34.009Z,65387.91
2022-08-28T23:21:02.071Z,65387.91
2022-08-28T23:24:27.960Z,65387.91
2022-08-28T23:27:55.834Z,65387.91
2022-08-28T23:31:22.267Z,65387.91
2022-08-28T23:34:46.980Z,65387.91
2022-08-28T23:37:32.955Z,101330.78
2022-08-28T23:40:59.138Z,65387.91
2022-08-28T23:44:25.038Z,65387.91
2022-08-28T23:47:52.418Z,65387.91
2022-08-28T23:51:21.842Z,65387.91
2022-08-28T23:54:49.379Z,65387.91
2022-08-28T23:58:15.484Z,65387.91
